sensor_id;sensor_type;location;lat;lon;timestamp;P1;durP1;ratioP1;P2;durP2;ratioP2
18738;SDS011;9498;51.862;19.460;2023-04-03T00:00:31;6.50;;;2.73;;
18738;SDS011;9498;51.862;19.460;2023-04-03T00:03:00;5.53;;;3.20;;
18738;SDS011;9498;51.862;19.460;2023-04-03T00:05:27;7.63;;;2.63;;
18738;SDS011;9498;51.862;19.460;2023-04-03T00:07:55;6.27;;;2.43;;
18738;SDS011;9498;51.862;19.460;2023-04-03T00:10:22;5.33;;;2.37;;
18738;SDS011;9498;51.862;19.460;2023-04-03T00:12:49;6.47;;;2.83;;
18738;SDS011;9498;51.862;19.460;2023-04-03T00:15:16;7.07;;;2.40;;
18738;SDS011;9498;51.862;19.460;2023-04-03T00:17:44;5.20;;;2.70;;
18738;SDS011;9498;51.862;19.460;2023-04-03T00:20:12;7.70;;;2.73;;
18738;SDS011;9498;51.862;19.460;2023-04-03T00:22:39;5.97;;;2.57;;
18738;SDS011;9498;51.862;19.460;2023-04-03T00:25:07;6.63;;;2.50;;
18738;SDS011;9498;51.862;19.460;2023-04-03T00:27:35;4.90;;;2.60;;
18738;SDS011;9498;51.862;19.460;2023-04-03T00:30:03;8.33;;;2.70;;
18738;SDS011;9498;51.862;19.460;2023-04-03T00:32:30;9.80;;;2.67;;
18738;SDS011;9498;51.862;19.460;2023-04-03T00:34:58;8.33;;;2.87;;
18738;SDS011;9498;51.862;19.460;2023-04-03T00:37:26;8.20;;;2.70;;
18738;SDS011;9498;51.862;19.460;2023-04-03T00:39:54;8.77;;;3.07;;
18738;SDS011;9498;51.862;19.460;2023-04-03T00:42:21;11.00;;;2.30;;
18738;SDS011;9498;51.862;19.460;2023-04-03T00:47:54;6.00;;;2.80;;
18738;SDS011;9498;51.862;19.460;2023-04-03T00:50:21;7.30;;;2.90;;
18738;SDS011;9498;51.862;19.460;2023-04-03T00:52:50;5.57;;;2.73;;
18738;SDS011;9498;51.862;19.460;2023-04-03T00:55:18;7.07;;;2.70;;
18738;SDS011;9498;51.862;19.460;2023-04-03T00:57:45;7.43;;;2.77;;
18738;SDS011;9498;51.862;19.460;2023-04-03T01:00:14;5.93;;;2.90;;
18738;SDS011;9498;51.862;19.460;2023-04-03T01:02:42;6.30;;;2.60;;
18738;SDS011;9498;51.862;19.460;2023-04-03T01:05:10;5.53;;;2.80;;
18738;SDS011;9498;51.862;19.460;2023-04-03T01:07:37;9.33;;;3.10;;
18738;SDS011;9498;51.862;19.460;2023-04-03T01:10:08;6.23;;;2.70;;
18738;SDS011;9498;51.862;19.460;2023-04-03T01:12:36;6.80;;;2.60;;
18738;SDS011;9498;51.862;19.460;2023-04-03T01:15:04;4.83;;;2.43;;
18738;SDS011;9498;51.862;19.460;2023-04-03T01:17:33;5.80;;;2.63;;
18738;SDS011;9498;51.862;19.460;2023-04-03T01:20:07;7.90;;;2.40;;
18738;SDS011;9498;51.862;19.460;2023-04-03T01:22:41;6.60;;;2.10;;
18738;SDS011;9498;51.862;19.460;2023-04-03T01:25:13;7.93;;;2.57;;
18738;SDS011;9498;51.862;19.460;2023-04-03T01:27:41;7.57;;;2.50;;
18738;SDS011;9498;51.862;19.460;2023-04-03T01:30:08;6.37;;;2.90;;
18738;SDS011;9498;51.862;19.460;2023-04-03T01:32:37;5.37;;;2.53;;
18738;SDS011;9498;51.862;19.460;2023-04-03T01:35:06;7.60;;;3.00;;
18738;SDS011;9498;51.862;19.460;2023-04-03T01:37:33;4.60;;;2.30;;
18738;SDS011;9498;51.862;19.460;2023-04-03T01:40:01;5.63;;;2.97;;
18738;SDS011;9498;51.862;19.460;2023-04-03T01:42:28;7.67;;;3.17;;
18738;SDS011;9498;51.862;19.460;2023-04-03T01:44:55;6.50;;;2.60;;
18738;SDS011;9498;51.862;19.460;2023-04-03T01:47:22;4.27;;;2.47;;
18738;SDS011;9498;51.862;19.460;2023-04-03T01:49:51;7.13;;;2.83;;
18738;SDS011;9498;51.862;19.460;2023-04-03T01:52:18;10.83;;;2.70;;
18738;SDS011;9498;51.862;19.460;2023-04-03T01:54:45;4.63;;;2.60;;
18738;SDS011;9498;51.862;19.460;2023-04-03T01:57:12;5.97;;;2.77;;
18738;SDS011;9498;51.862;19.460;2023-04-03T01:59:41;6.50;;;2.40;;
18738;SDS011;9498;51.862;19.460;2023-04-03T02:02:08;9.90;;;2.63;;
18738;SDS011;9498;51.862;19.460;2023-04-03T02:04:37;3.93;;;2.70;;
18738;SDS011;9498;51.862;19.460;2023-04-03T02:07:06;5.00;;;2.70;;
18738;SDS011;9498;51.862;19.460;2023-04-03T02:09:33;7.73;;;3.30;;
18738;SDS011;9498;51.862;19.460;2023-04-03T02:12:01;8.13;;;2.90;;
18738;SDS011;9498;51.862;19.460;2023-04-03T02:14:28;3.67;;;2.67;;
18738;SDS011;9498;51.862;19.460;2023-04-03T02:16:55;6.80;;;2.70;;
18738;SDS011;9498;51.862;19.460;2023-04-03T02:19:22;5.73;;;3.00;;
18738;SDS011;9498;51.862;19.460;2023-04-03T02:21:50;5.27;;;2.70;;
18738;SDS011;9498;51.862;19.460;2023-04-03T02:24:18;7.13;;;2.93;;
18738;SDS011;9498;51.862;19.460;2023-04-03T02:26:45;4.47;;;2.77;;
18738;SDS011;9498;51.862;19.460;2023-04-03T02:29:13;5.30;;;2.73;;
18738;SDS011;9498;51.862;19.460;2023-04-03T02:31:40;6.63;;;2.30;;
18738;SDS011;9498;51.862;19.460;2023-04-03T02:34:07;5.50;;;2.40;;
18738;SDS011;9498;51.862;19.460;2023-04-03T02:36:34;7.67;;;2.20;;
18738;SDS011;9498;51.862;19.460;2023-04-03T02:39:02;4.63;;;2.63;;
18738;SDS011;9498;51.862;19.460;2023-04-03T02:41:31;5.97;;;2.70;;
18738;SDS011;9498;51.862;19.460;2023-04-03T02:44:00;7.17;;;2.90;;
18738;SDS011;9498;51.862;19.460;2023-04-03T02:46:27;5.80;;;2.37;;
18738;SDS011;9498;51.862;19.460;2023-04-03T02:48:54;7.57;;;3.47;;
18738;SDS011;9498;51.862;19.460;2023-04-03T02:51:21;7.77;;;2.67;;
18738;SDS011;9498;51.862;19.460;2023-04-03T02:53:49;4.73;;;2.53;;
18738;SDS011;9498;51.862;19.460;2023-04-03T02:56:16;7.43;;;2.63;;
18738;SDS011;9498;51.862;19.460;2023-04-03T02:58:45;10.13;;;3.10;;
18738;SDS011;9498;51.862;19.460;2023-04-03T03:01:13;5.70;;;3.03;;
18738;SDS011;9498;51.862;19.460;2023-04-03T03:03:40;3.20;;;2.73;;
18738;SDS011;9498;51.862;19.460;2023-04-03T03:06:08;4.23;;;2.47;;
18738;SDS011;9498;51.862;19.460;2023-04-03T03:08:35;4.70;;;2.63;;
18738;SDS011;9498;51.862;19.460;2023-04-03T03:11:03;4.20;;;2.70;;
18738;SDS011;9498;51.862;19.460;2023-04-03T03:13:30;8.57;;;2.93;;
18738;SDS011;9498;51.862;19.460;2023-04-03T03:15:59;7.60;;;2.83;;
18738;SDS011;9498;51.862;19.460;2023-04-03T03:18:26;5.77;;;2.60;;
18738;SDS011;9498;51.862;19.460;2023-04-03T03:20:54;6.40;;;2.47;;
18738;SDS011;9498;51.862;19.460;2023-04-03T03:23:22;7.87;;;3.00;;
18738;SDS011;9498;51.862;19.460;2023-04-03T03:25:54;5.23;;;2.60;;
18738;SDS011;9498;51.862;19.460;2023-04-03T03:28:21;7.73;;;2.53;;
18738;SDS011;9498;51.862;19.460;2023-04-03T03:30:48;11.87;;;3.30;;
18738;SDS011;9498;51.862;19.460;2023-04-03T03:33:17;6.03;;;3.00;;
18738;SDS011;9498;51.862;19.460;2023-04-03T03:35:45;3.50;;;2.43;;
18738;SDS011;9498;51.862;19.460;2023-04-03T03:38:12;6.03;;;2.40;;
18738;SDS011;9498;51.862;19.460;2023-04-03T03:40:39;6.00;;;2.70;;
18738;SDS011;9498;51.862;19.460;2023-04-03T03:43:06;7.60;;;3.03;;
18738;SDS011;9498;51.862;19.460;2023-04-03T03:45:33;9.03;;;3.23;;
18738;SDS011;9498;51.862;19.460;2023-04-03T03:48:01;7.53;;;3.03;;
18738;SDS011;9498;51.862;19.460;2023-04-03T03:50:29;5.80;;;2.77;;
18738;SDS011;9498;51.862;19.460;2023-04-03T03:52:56;7.73;;;2.57;;
18738;SDS011;9498;51.862;19.460;2023-04-03T03:55:24;8.50;;;2.75;;
18738;SDS011;9498;51.862;19.460;2023-04-03T03:57:51;6.53;;;2.70;;
18738;SDS011;9498;51.862;19.460;2023-04-03T04:00:18;4.60;;;2.67;;
18738;SDS011;9498;51.862;19.460;2023-04-03T04:02:46;6.83;;;2.53;;
18738;SDS011;9498;51.862;19.460;2023-04-03T04:05:13;3.43;;;2.47;;
18738;SDS011;9498;51.862;19.460;2023-04-03T04:07:42;7.40;;;3.30;;
18738;SDS011;9498;51.862;19.460;2023-04-03T04:10:09;3.97;;;2.50;;
18738;SDS011;9498;51.862;19.460;2023-04-03T04:12:36;6.50;;;2.77;;
18738;SDS011;9498;51.862;19.460;2023-04-03T04:15:04;7.53;;;2.93;;
18738;SDS011;9498;51.862;19.460;2023-04-03T04:17:31;6.53;;;3.20;;
18738;SDS011;9498;51.862;19.460;2023-04-03T04:20:00;7.10;;;2.80;;
18738;SDS011;9498;51.862;19.460;2023-04-03T04:22:27;12.60;;;3.50;;
18738;SDS011;9498;51.862;19.460;2023-04-03T04:24:56;7.00;;;2.95;;
18738;SDS011;9498;51.862;19.460;2023-04-03T04:27:23;6.77;;;2.87;;
18738;SDS011;9498;51.862;19.460;2023-04-03T04:29:50;5.97;;;2.90;;
18738;SDS011;9498;51.862;19.460;2023-04-03T04:32:17;5.03;;;2.83;;
18738;SDS011;9498;51.862;19.460;2023-04-03T04:34:45;10.97;;;3.23;;
18738;SDS011;9498;51.862;19.460;2023-04-03T04:37:12;13.30;;;3.30;;
18738;SDS011;9498;51.862;19.460;2023-04-03T04:39:39;5.67;;;3.30;;
18738;SDS011;9498;51.862;19.460;2023-04-03T04:42:08;9.30;;;3.27;;
18738;SDS011;9498;51.862;19.460;2023-04-03T04:44:37;6.13;;;3.20;;
18738;SDS011;9498;51.862;19.460;2023-04-03T04:47:04;8.52;;;3.40;;
18738;SDS011;9498;51.862;19.460;2023-04-03T04:49:32;6.77;;;3.13;;
18738;SDS011;9498;51.862;19.460;2023-04-03T04:51:59;5.90;;;3.00;;
18738;SDS011;9498;51.862;19.460;2023-04-03T04:54:26;6.70;;;3.27;;
18738;SDS011;9498;51.862;19.460;2023-04-03T04:56:53;6.83;;;3.47;;
18738;SDS011;9498;51.862;19.460;2023-04-03T04:59:22;7.23;;;4.00;;
18738;SDS011;9498;51.862;19.460;2023-04-03T05:01:49;6.03;;;3.10;;
18738;SDS011;9498;51.862;19.460;2023-04-03T05:04:16;6.53;;;2.87;;
18738;SDS011;9498;51.862;19.460;2023-04-03T05:06:43;5.40;;;2.87;;
18738;SDS011;9498;51.862;19.460;2023-04-03T05:09:11;8.40;;;3.47;;
18738;SDS011;9498;51.862;19.460;2023-04-03T05:11:38;7.07;;;2.73;;
18738;SDS011;9498;51.862;19.460;2023-04-03T05:14:05;7.63;;;3.27;;
18738;SDS011;9498;51.862;19.460;2023-04-03T05:16:34;10.03;;;3.43;;
18738;SDS011;9498;51.862;19.460;2023-04-03T05:19:01;7.50;;;3.00;;
18738;SDS011;9498;51.862;19.460;2023-04-03T05:21:28;7.23;;;3.00;;
18738;SDS011;9498;51.862;19.460;2023-04-03T05:23:57;8.93;;;3.53;;
18738;SDS011;9498;51.862;19.460;2023-04-03T05:26:27;8.97;;;3.70;;
18738;SDS011;9498;51.862;19.460;2023-04-03T05:28:54;11.27;;;4.40;;
18738;SDS011;9498;51.862;19.460;2023-04-03T05:31:22;8.30;;;3.23;;
18738;SDS011;9498;51.862;19.460;2023-04-03T05:33:51;7.13;;;3.30;;
18738;SDS011;9498;51.862;19.460;2023-04-03T05:36:18;8.80;;;3.40;;
18738;SDS011;9498;51.862;19.460;2023-04-03T05:38:45;7.10;;;3.87;;
18738;SDS011;9498;51.862;19.460;2023-04-03T05:41:13;6.87;;;3.60;;
18738;SDS011;9498;51.862;19.460;2023-04-03T05:43:40;7.27;;;3.03;;
18738;SDS011;9498;51.862;19.460;2023-04-03T05:46:09;9.60;;;3.43;;
18738;SDS011;9498;51.862;19.460;2023-04-03T05:48:36;5.80;;;3.40;;
18738;SDS011;9498;51.862;19.460;2023-04-03T05:51:05;10.20;;;3.30;;
18738;SDS011;9498;51.862;19.460;2023-04-03T05:53:33;8.50;;;3.73;;
18738;SDS011;9498;51.862;19.460;2023-04-03T05:56:01;8.27;;;3.60;;
18738;SDS011;9498;51.862;19.460;2023-04-03T05:58:28;8.37;;;3.53;;
18738;SDS011;9498;51.862;19.460;2023-04-03T06:00:56;8.60;;;2.93;;
18738;SDS011;9498;51.862;19.460;2023-04-03T06:03:23;9.03;;;3.17;;
18738;SDS011;9498;51.862;19.460;2023-04-03T06:05:50;7.97;;;3.77;;
18738;SDS011;9498;51.862;19.460;2023-04-03T06:08:19;6.83;;;3.10;;
18738;SDS011;9498;51.862;19.460;2023-04-03T06:10:46;5.77;;;3.20;;
18738;SDS011;9498;51.862;19.460;2023-04-03T06:13:13;12.10;;;4.20;;
18738;SDS011;9498;51.862;19.460;2023-04-03T06:15:40;10.13;;;4.00;;
18738;SDS011;9498;51.862;19.460;2023-04-03T06:18:08;10.93;;;4.33;;
18738;SDS011;9498;51.862;19.460;2023-04-03T06:20:35;9.60;;;3.77;;
18738;SDS011;9498;51.862;19.460;2023-04-03T06:23:02;8.10;;;3.40;;
18738;SDS011;9498;51.862;19.460;2023-04-03T06:25:31;9.50;;;3.50;;
18738;SDS011;9498;51.862;19.460;2023-04-03T06:27:58;7.87;;;3.83;;
18738;SDS011;9498;51.862;19.460;2023-04-03T06:30:26;6.40;;;3.20;;
18738;SDS011;9498;51.862;19.460;2023-04-03T06:32:53;6.23;;;3.20;;
18738;SDS011;9498;51.862;19.460;2023-04-03T06:35:20;8.97;;;3.50;;
18738;SDS011;9498;51.862;19.460;2023-04-03T06:40:42;5.73;;;3.17;;
18738;SDS011;9498;51.862;19.460;2023-04-03T06:43:09;10.40;;;3.60;;
18738;SDS011;9498;51.862;19.460;2023-04-03T06:45:36;5.00;;;2.90;;
18738;SDS011;9498;51.862;19.460;2023-04-03T06:48:04;6.77;;;2.93;;
18738;SDS011;9498;51.862;19.460;2023-04-03T06:50:31;13.17;;;3.10;;
18738;SDS011;9498;51.862;19.460;2023-04-03T06:52:58;4.97;;;2.87;;
18738;SDS011;9498;51.862;19.460;2023-04-03T06:55:26;7.47;;;2.90;;
18738;SDS011;9498;51.862;19.460;2023-04-03T06:57:54;12.73;;;2.97;;
18738;SDS011;9498;51.862;19.460;2023-04-03T07:00:22;6.57;;;3.22;;
18738;SDS011;9498;51.862;19.460;2023-04-03T07:02:50;6.90;;;2.33;;
18738;SDS011;9498;51.862;19.460;2023-04-03T07:05:17;5.97;;;2.53;;
18738;SDS011;9498;51.862;19.460;2023-04-03T07:07:45;5.63;;;2.73;;
18738;SDS011;9498;51.862;19.460;2023-04-03T07:10:12;5.57;;;2.70;;
18738;SDS011;9498;51.862;19.460;2023-04-03T07:12:39;9.20;;;3.10;;
18738;SDS011;9498;51.862;19.460;2023-04-03T07:15:09;10.00;;;3.23;;
18738;SDS011;9498;51.862;19.460;2023-04-03T07:17:37;5.13;;;2.87;;
18738;SDS011;9498;51.862;19.460;2023-04-03T07:20:05;10.30;;;3.20;;
18738;SDS011;9498;51.862;19.460;2023-04-03T07:22:33;9.33;;;3.13;;
18738;SDS011;9498;51.862;19.460;2023-04-03T07:25:06;8.63;;;2.43;;
18738;SDS011;9498;51.862;19.460;2023-04-03T07:27:34;4.80;;;2.43;;
18738;SDS011;9498;51.862;19.460;2023-04-03T07:30:01;9.83;;;3.30;;
18738;SDS011;9498;51.862;19.460;2023-04-03T07:32:30;5.67;;;2.53;;
18738;SDS011;9498;51.862;19.460;2023-04-03T07:34:57;7.30;;;2.80;;
18738;SDS011;9498;51.862;19.460;2023-04-03T07:37:24;4.97;;;2.33;;
18738;SDS011;9498;51.862;19.460;2023-04-03T07:39:51;3.77;;;2.30;;
18738;SDS011;9498;51.862;19.460;2023-04-03T07:42:20;3.17;;;2.17;;
18738;SDS011;9498;51.862;19.460;2023-04-03T07:44:47;4.07;;;2.23;;
18738;SDS011;9498;51.862;19.460;2023-04-03T07:47:14;7.80;;;2.20;;
18738;SDS011;9498;51.862;19.460;2023-04-03T07:49:44;5.13;;;2.30;;
18738;SDS011;9498;51.862;19.460;2023-04-03T07:52:12;9.83;;;2.93;;
18738;SDS011;9498;51.862;19.460;2023-04-03T07:54:40;3.77;;;2.23;;
18738;SDS011;9498;51.862;19.460;2023-04-03T07:57:07;4.10;;;2.27;;
18738;SDS011;9498;51.862;19.460;2023-04-03T07:59:35;6.67;;;2.60;;
18738;SDS011;9498;51.862;19.460;2023-04-03T08:02:02;4.60;;;2.37;;
18738;SDS011;9498;51.862;19.460;2023-04-03T08:04:30;5.17;;;2.50;;
18738;SDS011;9498;51.862;19.460;2023-04-03T08:06:58;5.37;;;2.10;;
18738;SDS011;9498;51.862;19.460;2023-04-03T08:09:25;5.50;;;2.23;;
18738;SDS011;9498;51.862;19.460;2023-04-03T08:11:53;3.63;;;1.80;;
18738;SDS011;9498;51.862;19.460;2023-04-03T08:14:20;8.17;;;2.03;;
18738;SDS011;9498;51.862;19.460;2023-04-03T08:16:47;3.50;;;2.20;;
18738;SDS011;9498;51.862;19.460;2023-04-03T08:19:15;5.27;;;2.30;;
18738;SDS011;9498;51.862;19.460;2023-04-03T08:21:43;6.30;;;2.10;;
18738;SDS011;9498;51.862;19.460;2023-04-03T08:24:11;6.83;;;2.07;;
18738;SDS011;9498;51.862;19.460;2023-04-03T08:26:39;6.80;;;2.10;;
18738;SDS011;9498;51.862;19.460;2023-04-03T08:29:06;8.43;;;2.23;;
18738;SDS011;9498;51.862;19.460;2023-04-03T08:31:33;5.50;;;2.30;;
18738;SDS011;9498;51.862;19.460;2023-04-03T08:34:00;2.70;;;2.10;;
18738;SDS011;9498;51.862;19.460;2023-04-03T08:36:28;5.07;;;1.83;;
18738;SDS011;9498;51.862;19.460;2023-04-03T08:38:56;5.53;;;2.00;;
18738;SDS011;9498;51.862;19.460;2023-04-03T08:41:27;4.97;;;1.80;;
18738;SDS011;9498;51.862;19.460;2023-04-03T08:43:58;7.07;;;2.20;;
18738;SDS011;9498;51.862;19.460;2023-04-03T08:46:32;4.40;;;2.10;;
18738;SDS011;9498;51.862;19.460;2023-04-03T08:49:02;3.27;;;2.03;;
18738;SDS011;9498;51.862;19.460;2023-04-03T08:51:31;5.37;;;1.90;;
18738;SDS011;9498;51.862;19.460;2023-04-03T08:53:59;2.73;;;1.90;;
18738;SDS011;9498;51.862;19.460;2023-04-03T08:56:30;3.97;;;1.97;;
18738;SDS011;9498;51.862;19.460;2023-04-03T08:58:58;5.70;;;2.17;;
18738;SDS011;9498;51.862;19.460;2023-04-03T09:01:27;4.17;;;1.97;;
18738;SDS011;9498;51.862;19.460;2023-04-03T09:03:55;3.13;;;1.77;;
18738;SDS011;9498;51.862;19.460;2023-04-03T09:06:23;7.33;;;2.20;;
18738;SDS011;9498;51.862;19.460;2023-04-03T09:08:58;5.27;;;2.43;;
18738;SDS011;9498;51.862;19.460;2023-04-03T09:11:34;6.67;;;3.10;;
18738;SDS011;9498;51.862;19.460;2023-04-03T09:14:04;6.90;;;2.60;;
18738;SDS011;9498;51.862;19.460;2023-04-03T09:16:36;6.03;;;2.43;;
18738;SDS011;9498;51.862;19.460;2023-04-03T09:19:08;4.63;;;2.33;;
18738;SDS011;9498;51.862;19.460;2023-04-03T09:21:39;6.87;;;3.20;;
18738;SDS011;9498;51.862;19.460;2023-04-03T09:24:08;5.23;;;2.60;;
18738;SDS011;9498;51.862;19.460;2023-04-03T09:26:39;10.80;;;3.43;;
18738;SDS011;9498;51.862;19.460;2023-04-03T09:29:07;5.77;;;2.27;;
18738;SDS011;9498;51.862;19.460;2023-04-03T09:31:36;4.30;;;2.13;;
18738;SDS011;9498;51.862;19.460;2023-04-03T09:34:05;8.00;;;2.23;;
18738;SDS011;9498;51.862;19.460;2023-04-03T09:36:40;3.47;;;2.03;;
18738;SDS011;9498;51.862;19.460;2023-04-03T09:39:09;2.17;;;1.77;;
18738;SDS011;9498;51.862;19.460;2023-04-03T09:41:38;7.40;;;2.60;;
18738;SDS011;9498;51.862;19.460;2023-04-03T09:44:17;6.87;;;2.10;;
18738;SDS011;9498;51.862;19.460;2023-04-03T09:46:46;4.40;;;2.07;;
18738;SDS011;9498;51.862;19.460;2023-04-03T09:49:13;9.13;;;3.00;;
18738;SDS011;9498;51.862;19.460;2023-04-03T09:51:41;14.97;;;5.53;;
18738;SDS011;9498;51.862;19.460;2023-04-03T09:54:24;10.57;;;2.90;;
18738;SDS011;9498;51.862;19.460;2023-04-03T09:56:53;4.70;;;2.10;;
18738;SDS011;9498;51.862;19.460;2023-04-03T09:59:21;4.00;;;1.90;;
18738;SDS011;9498;51.862;19.460;2023-04-03T10:01:56;4.73;;;2.00;;
18738;SDS011;9498;51.862;19.460;2023-04-03T10:04:24;2.83;;;2.00;;
18738;SDS011;9498;51.862;19.460;2023-04-03T10:06:52;6.07;;;1.90;;
18738;SDS011;9498;51.862;19.460;2023-04-03T10:09:20;4.83;;;2.27;;
18738;SDS011;9498;51.862;19.460;2023-04-03T10:11:59;5.20;;;2.40;;
18738;SDS011;9498;51.862;19.460;2023-04-03T10:14:27;6.07;;;2.33;;
18738;SDS011;9498;51.862;19.460;2023-04-03T10:16:56;7.93;;;2.00;;
18738;SDS011;9498;51.862;19.460;2023-04-03T10:19:32;6.60;;;3.20;;
18738;SDS011;9498;51.862;19.460;2023-04-03T10:22:02;4.70;;;2.10;;
18738;SDS011;9498;51.862;19.460;2023-04-03T10:24:32;3.03;;;2.20;;
18738;SDS011;9498;51.862;19.460;2023-04-03T10:27:05;7.33;;;2.50;;
18738;SDS011;9498;51.862;19.460;2023-04-03T10:29:39;2.63;;;1.90;;
18738;SDS011;9498;51.862;19.460;2023-04-03T10:32:11;4.37;;;2.50;;
18738;SDS011;9498;51.862;19.460;2023-04-03T10:34:40;4.80;;;1.83;;
18738;SDS011;9498;51.862;19.460;2023-04-03T10:37:11;6.87;;;2.10;;
18738;SDS011;9498;51.862;19.460;2023-04-03T10:39:43;6.23;;;1.70;;
18738;SDS011;9498;51.862;19.460;2023-04-03T10:42:17;4.30;;;2.03;;
18738;SDS011;9498;51.862;19.460;2023-04-03T10:44:58;3.77;;;1.97;;
18738;SDS011;9498;51.862;19.460;2023-04-03T10:47:29;5.10;;;2.30;;
18738;SDS011;9498;51.862;19.460;2023-04-03T10:50:00;3.10;;;1.97;;
18738;SDS011;9498;51.862;19.460;2023-04-03T10:52:30;5.17;;;1.77;;
18738;SDS011;9498;51.862;19.460;2023-04-03T10:55:02;5.57;;;2.43;;
18738;SDS011;9498;51.862;19.460;2023-04-03T10:57:32;3.87;;;1.97;;
18738;SDS011;9498;51.862;19.460;2023-04-03T11:00:00;4.33;;;1.97;;
18738;SDS011;9498;51.862;19.460;2023-04-03T11:02:29;3.93;;;2.40;;
18738;SDS011;9498;51.862;19.460;2023-04-03T11:04:59;6.60;;;2.00;;
18738;SDS011;9498;51.862;19.460;2023-04-03T11:07:28;6.80;;;2.13;;
18738;SDS011;9498;51.862;19.460;2023-04-03T11:09:57;5.90;;;2.00;;
18738;SDS011;9498;51.862;19.460;2023-04-03T11:12:27;4.73;;;1.87;;
18738;SDS011;9498;51.862;19.460;2023-04-03T11:14:57;2.67;;;1.77;;
18738;SDS011;9498;51.862;19.460;2023-04-03T11:17:27;3.43;;;1.60;;
18738;SDS011;9498;51.862;19.460;2023-04-03T11:19:57;3.17;;;1.70;;
18738;SDS011;9498;51.862;19.460;2023-04-03T11:22:27;4.20;;;2.13;;
18738;SDS011;9498;51.862;19.460;2023-04-03T11:24:57;6.97;;;2.00;;
18738;SDS011;9498;51.862;19.460;2023-04-03T11:27:26;9.30;;;2.40;;
18738;SDS011;9498;51.862;19.460;2023-04-03T11:29:57;5.90;;;1.80;;
18738;SDS011;9498;51.862;19.460;2023-04-03T11:32:29;4.20;;;2.03;;
18738;SDS011;9498;51.862;19.460;2023-04-03T11:34:58;3.40;;;1.73;;
18738;SDS011;9498;51.862;19.460;2023-04-03T11:37:28;4.97;;;2.10;;
18738;SDS011;9498;51.862;19.460;2023-04-03T11:39:58;2.70;;;1.60;;
18738;SDS011;9498;51.862;19.460;2023-04-03T11:42:29;3.50;;;1.60;;
18738;SDS011;9498;51.862;19.460;2023-04-03T11:47:48;4.70;;;2.00;;
18738;SDS011;9498;51.862;19.460;2023-04-03T11:50:37;6.30;;;2.93;;
18738;SDS011;9498;51.862;19.460;2023-04-03T11:55:58;2.97;;;1.77;;
18738;SDS011;9498;51.862;19.460;2023-04-03T11:58:26;3.87;;;1.93;;
18738;SDS011;9498;51.862;19.460;2023-04-03T12:00:59;3.63;;;1.63;;
18738;SDS011;9498;51.862;19.460;2023-04-03T12:06:42;5.73;;;2.10;;
18738;SDS011;9498;51.862;19.460;2023-04-03T12:09:21;5.30;;;1.90;;
18738;SDS011;9498;51.862;19.460;2023-04-03T12:11:49;3.93;;;1.67;;
18738;SDS011;9498;51.862;19.460;2023-04-03T12:14:17;3.03;;;1.83;;
18738;SDS011;9498;51.862;19.460;2023-04-03T12:16:45;2.60;;;1.80;;
18738;SDS011;9498;51.862;19.460;2023-04-03T12:19:33;3.97;;;1.80;;
18738;SDS011;9498;51.862;19.460;2023-04-03T12:22:13;2.50;;;1.80;;
18738;SDS011;9498;51.862;19.460;2023-04-03T12:24:41;3.70;;;1.70;;
18738;SDS011;9498;51.862;19.460;2023-04-03T12:27:15;5.57;;;1.80;;
18738;SDS011;9498;51.862;19.460;2023-04-03T12:29:46;4.83;;;1.60;;
18738;SDS011;9498;51.862;19.460;2023-04-03T12:32:17;5.00;;;2.13;;
18738;SDS011;9498;51.862;19.460;2023-04-03T12:34:53;7.40;;;2.03;;
18738;SDS011;9498;51.862;19.460;2023-04-03T12:37:31;4.87;;;1.97;;
18738;SDS011;9498;51.862;19.460;2023-04-03T12:40:07;3.10;;;1.90;;
18738;SDS011;9498;51.862;19.460;2023-04-03T12:42:42;3.83;;;1.97;;
18738;SDS011;9498;51.862;19.460;2023-04-03T12:45:16;4.33;;;1.60;;
18738;SDS011;9498;51.862;19.460;2023-04-03T12:47:44;3.43;;;1.63;;
18738;SDS011;9498;51.862;19.460;2023-04-03T12:50:21;4.13;;;1.93;;
18738;SDS011;9498;51.862;19.460;2023-04-03T12:52:51;3.73;;;1.70;;
18738;SDS011;9498;51.862;19.460;2023-04-03T12:55:20;5.23;;;1.70;;
18738;SDS011;9498;51.862;19.460;2023-04-03T12:57:48;4.00;;;2.20;;
18738;SDS011;9498;51.862;19.460;2023-04-03T13:00:25;3.27;;;2.10;;
18738;SDS011;9498;51.862;19.460;2023-04-03T13:02:54;3.73;;;2.10;;
18738;SDS011;9498;51.862;19.460;2023-04-03T13:05:23;3.43;;;2.10;;
18738;SDS011;9498;51.862;19.460;2023-04-03T13:07:52;3.03;;;1.90;;
18738;SDS011;9498;51.862;19.460;2023-04-03T13:10:22;4.60;;;2.33;;
18738;SDS011;9498;51.862;19.460;2023-04-03T13:12:50;4.00;;;2.20;;
18738;SDS011;9498;51.862;19.460;2023-04-03T13:15:19;3.97;;;2.07;;
18738;SDS011;9498;51.862;19.460;2023-04-03T13:17:47;5.77;;;1.87;;
18738;SDS011;9498;51.862;19.460;2023-04-03T13:20:19;4.57;;;2.10;;
18738;SDS011;9498;51.862;19.460;2023-04-03T13:22:49;3.67;;;2.00;;
18738;SDS011;9498;51.862;19.460;2023-04-03T13:25:19;3.07;;;1.60;;
18738;SDS011;9498;51.862;19.460;2023-04-03T13:27:46;4.43;;;1.93;;
18738;SDS011;9498;51.862;19.460;2023-04-03T13:30:25;4.67;;;2.00;;
18738;SDS011;9498;51.862;19.460;2023-04-03T13:32:53;5.33;;;1.70;;
18738;SDS011;9498;51.862;19.460;2023-04-03T13:35:28;4.43;;;1.77;;
18738;SDS011;9498;51.862;19.460;2023-04-03T13:37:58;5.30;;;1.93;;
18738;SDS011;9498;51.862;19.460;2023-04-03T13:40:25;3.40;;;1.93;;
18738;SDS011;9498;51.862;19.460;2023-04-03T13:43:00;3.87;;;1.80;;
18738;SDS011;9498;51.862;19.460;2023-04-03T13:45:27;3.33;;;1.53;;
18738;SDS011;9498;51.862;19.460;2023-04-03T13:48:06;3.57;;;2.00;;
18738;SDS011;9498;51.862;19.460;2023-04-03T13:50:40;4.33;;;1.90;;
18738;SDS011;9498;51.862;19.460;2023-04-03T13:53:18;4.37;;;1.83;;
18738;SDS011;9498;51.862;19.460;2023-04-03T13:55:59;3.50;;;1.77;;
18738;SDS011;9498;51.862;19.460;2023-04-03T13:58:28;3.10;;;1.90;;
18738;SDS011;9498;51.862;19.460;2023-04-03T14:00:55;5.67;;;2.47;;
18738;SDS011;9498;51.862;19.460;2023-04-03T14:03:23;7.83;;;2.13;;
18738;SDS011;9498;51.862;19.460;2023-04-03T14:05:52;3.87;;;1.57;;
18738;SDS011;9498;51.862;19.460;2023-04-03T14:08:21;3.33;;;1.80;;
18738;SDS011;9498;51.862;19.460;2023-04-03T14:10:48;3.20;;;1.90;;
18738;SDS011;9498;51.862;19.460;2023-04-03T14:13:17;6.60;;;1.63;;
18738;SDS011;9498;51.862;19.460;2023-04-03T14:15:44;2.50;;;1.67;;
18738;SDS011;9498;51.862;19.460;2023-04-03T14:18:14;6.63;;;2.10;;
18738;SDS011;9498;51.862;19.460;2023-04-03T14:20:41;2.43;;;1.53;;
18738;SDS011;9498;51.862;19.460;2023-04-03T14:23:09;4.43;;;2.00;;
18738;SDS011;9498;51.862;19.460;2023-04-03T14:25:37;10.00;;;2.00;;
18738;SDS011;9498;51.862;19.460;2023-04-03T14:28:12;3.40;;;2.10;;
18738;SDS011;9498;51.862;19.460;2023-04-03T14:30:40;5.23;;;2.10;;
18738;SDS011;9498;51.862;19.460;2023-04-03T14:33:09;4.23;;;1.93;;
18738;SDS011;9498;51.862;19.460;2023-04-03T14:35:37;4.17;;;1.97;;
18738;SDS011;9498;51.862;19.460;2023-04-03T14:38:05;3.00;;;1.80;;
18738;SDS011;9498;51.862;19.460;2023-04-03T14:40:39;4.37;;;1.53;;
18738;SDS011;9498;51.862;19.460;2023-04-03T14:43:08;3.33;;;1.63;;
18738;SDS011;9498;51.862;19.460;2023-04-03T14:45:36;5.33;;;1.90;;
18738;SDS011;9498;51.862;19.460;2023-04-03T14:48:03;5.37;;;2.33;;
18738;SDS011;9498;51.862;19.460;2023-04-03T14:50:31;9.67;;;2.20;;
18738;SDS011;9498;51.862;19.460;2023-04-03T14:52:58;3.23;;;1.77;;
18738;SDS011;9498;51.862;19.460;2023-04-03T14:55:25;3.93;;;1.50;;
18738;SDS011;9498;51.862;19.460;2023-04-03T14:57:54;3.97;;;2.10;;
18738;SDS011;9498;51.862;19.460;2023-04-03T15:00:22;3.77;;;1.70;;
18738;SDS011;9498;51.862;19.460;2023-04-03T15:02:49;4.03;;;1.93;;
18738;SDS011;9498;51.862;19.460;2023-04-03T15:05:16;2.67;;;1.67;;
18738;SDS011;9498;51.862;19.460;2023-04-03T15:07:45;2.90;;;1.50;;
18738;SDS011;9498;51.862;19.460;2023-04-03T15:10:15;4.00;;;1.70;;
18738;SDS011;9498;51.862;19.460;2023-04-03T15:12:42;5.20;;;2.10;;